EFMA/MHQ METAR and TAF weather

Enter ICAO airport designator
Station Type Date Time Source
EFMA METAR 2022/01/25 05:20 UTC NOAA

EFMA 250520Z AUTO 33008KT 300V360 CAVOK 02/M03 Q1019


Station Type Date Time Source
EFMA Decoded METAR 2022/01/25 05:20 UTC NOAA

Mariehamn / Aland Island, Finland (EFMA) 60-07N 019-54E
Jan 25, 2022 - 12:20 AM EST / 2022.01.25 0520 UTC
Wind: from the NNW (330 degrees) at 9 MPH (8 KT) (direction variable):0
Visibility: greater than 7 mile(s):0
Temperature: 35 F (2 C)
Windchill: 28 F (-2 C):1
Dew Point: 26 F (-3 C)
Relative Humidity: 69%
Pressure (altimeter): 30.09 in. Hg (1019 hPa)
ob: EFMA 250520Z AUTO 33008KT 300V360 CAVOK 02/M03 Q1019
cycle: 5

Station Type Date Time Source
EFMA TAF 2014/05/01 21:18 UTC NOAA

TAF TAF EFMA 302037Z 3021/0106 08008KT CAVOK
TEMPO 3023/0101 02010KT 6000 RASN
BECMG 0101/0103 01012KT 4000 RASN BKN010 OVC025

Example: see airport list